Ramon Santa Cruz

Olheiro - River Plate
20 Fev 2028
Domingo
Processo

Personalidade

Adaptabilidade (11) Ambição (4) Controvérsia (19) Lealdade (10) Pressão (10) Profissionalismo (7) Espírito Esportivo (12) Temperamento (14)

Perfil

Estilo de Treinamento Democrático
Licença Nacional B
Determinação 3
Gestão de Pessoas 10
Motivação 4
Disciplina 4
Satisfação no Trabalho
100%
Fadiga
0%
Função Olheiro
Salário 57.0K p/s
Contrato 14.03.2030

Desempenho

Comportamento Bom
Eficácia do Treinamento
43%
Desenvolvimento do Jogador
45%
Prevenção de Lesões
35%
Implementação Tática
55%

Eventos Recentes

Participou de uma reunião de recrutamento agora
Recomendou um alvo de transferência agora
Participou de uma reunião de recrutamento agora
Avaliou um jogador agora
Avaliou um jogador agora
Avaliou um jogador agora
Avaliou um jogador agora
Avaliou um jogador 7d atrás

Monitorando agora

199
Jogador Clube Status Habilidade Confiança Observado Última observação Último voto
Tadej Bonaca Agia Napa Ativo 84 / 114 40% 1 19.02.2028 -
Juan Esteban Gómez Ankaragucu Ativo 99 / 92 40% 1 19.02.2028 -
Marquinhos Spartak Moscow Ativo 130 / 140 40% 2 18.02.2028 -
Javi Martínez Eibar Ativo 124 / 116 40% 1 18.02.2028 -
Tommaso Orsini Sambenedettese Ativo 100 / 100 40% 2 17.02.2028 -
Urko Izeta Cádiz Ativo 124 / 127 40% 1 17.02.2028 -
Eduardo Armenta Ufa Ativo 121 / 92 40% 1 17.02.2028 -
Luka Fuster Tigre Ativo 106 / 115 40% 1 17.02.2028 -
Nahuel Leivas Levante Ativo 88 / 119 40% 1 15.02.2028 -
Jorthy Mokio ADO Den Haag Ativo 127 / 148 40% 1 15.02.2028 -
Griffin Yow New England Revolution Ativo 123 / 139 40% 1 13.02.2028 -
Tai Abed Levante Ativo 113 / 133 40% 1 13.02.2028 -
Juan Ignacio Blanco Defensor Sporting Ativo 86 / 97 40% 2 12.02.2028 -
Giorgi Arabidze Torpedo Kutaisi Ativo 119 / 120 40% 1 12.02.2028 -
Felipe Pontoni Talleres Ativo 86 / 91 40% 1 12.02.2028 -
David Valencia Alianza Petrolera Ativo 118 / 127 40% 4 11.02.2028 -
Tomás Bais Lanús Ativo 92 / 94 40% 1 11.02.2028 -
Mikkel Hope Haugesund Ativo 90 / 99 40% 1 11.02.2028 -
Felipe Igón Racing Club Negociando 103 / 105 40% 2 09.02.2028 -
Matías Vilalta Wrexham Ativo 94 / 90 40% 1 09.02.2028 -
Matías Canedo Rampla Juniors Ativo 82 / 98 40% 4 08.02.2028 -
Giovanni Leoni Bradford City Ativo 134 / 132 40% 3 08.02.2028 -
Esquerdinha Shrewsbury Town Ativo 106 / 142 40% 1 07.02.2028 -
Bernard Sulemana Hasaacas Ativo 89 / 104 40% 1 07.02.2028 -
Jeremías Florentín Talleres Ativo 121 / 114 40% 1 07.02.2028 -
Ernie Weaver AFC Wimbledon Ativo 113 / 125 40% 1 05.02.2028 -
Buba Sangaré Elche Ativo 115 / 119 40% 1 05.02.2028 -
Luis Otávio Colorado Rapids Ativo 113 / 122 40% 1 03.02.2028 -
Freddy Murillo Valencia Ativo 102 / 135 40% 1 02.02.2028 -
Tiago Gordillo San Miguel Ativo 79 / 89 40% 2 31.01.2028 -
José Movillo O'Higgins Ativo 85 / 83 40% 1 31.01.2028 -
Nazareno Roselli Defensa y Justicia Ativo 119 / 124 40% 1 30.01.2028 -
Juan Morán Godoy Cruz Ativo 111 / 123 40% 1 30.01.2028 -
Ronan Kpakio Cardiff City Ativo 120 / 142 40% 2 25.01.2028 -
Felipe Obradovich Ferro Carril Oeste Negociando 111 / 125 40% 3 24.01.2028 -
Josh Nichols Tranmere Rovers Ativo 124 / 134 40% 3 24.01.2028 -
Mauro Carrizo Atlético Tucumán Ativo 106 / 117 40% 2 19.01.2028 -
Agustín Medina Valencia Ativo 132 / 123 40% 1 19.01.2028 -
Diego Vargas San Marcos de Arica Ativo 88 / 100 40% 1 17.01.2028 -
José Correa Deportivo Tachira Ativo 90 / 100 40% 2 16.01.2028 -
David Asayure Lokomotivi Ativo 86 / 79 40% 1 15.01.2028 -
Bautista Reinhardt Hrvatski Dragovoljac Ativo 95 / 82 40% 2 11.01.2028 -
Hervin Goyes Deportivo Pasto Ativo 102 / 114 40% 2 09.01.2028 -
Jair Collahuazo Kudrivka Ativo 107 / 123 40% 1 09.01.2028 -
Óscar Hinojosa Metropolitanos Ativo 80 / 84 40% 1 08.01.2028 -
Martín Jiménez Audax Italiano Ativo 98 / 101 40% 1 07.01.2028 -
Alejo Cruz Juventud Ativo 124 / 125 40% 1 04.01.2028 -
Augusto Berrondo Tristán Suárez Ativo 120 / 103 40% 1 04.01.2028 -
Ramiro Buratti River Plate Ativo 94 / 102 40% 1 27.12.2027 -
José Recalde Libertad Ativo 83 / 108 58% 1 01.12.2027 Aprovar
Juan Camilo Córdoba Deportivo Pereira Ativo 77 / 94 40% 2 30.11.2027 -
Musa Malik Ikorodu City Ativo 106 / 89 40% 4 25.11.2027 -
Santino Carrizo Chacarita Juniors Ativo 79 / 96 40% 3 22.11.2027 -
Kevin Angulo America de Cali Ativo 108 / 113 40% 1 22.11.2027 -
Sebastián Ramírez Jaguares Ativo 114 / 110 40% 2 21.11.2027 -
Cristian Florez Cortulua Ativo 99 / 118 40% 4 18.11.2027 -
Giovanni Cantizano Rosario Central Ativo 113 / 115 40% 1 18.11.2027 -
Luis Vidal Deportivo Pereira Ativo 85 / 81 40% 3 17.11.2027 -
Emmanuel Chacón Zulia Ativo 94 / 86 40% 1 15.11.2027 -
Matías Lozano Deportivo Pasto Ativo 110 / 113 40% 3 12.11.2027 -
Santiago López Independiente Ativo 130 / 126 40% 2 11.11.2027 -
Mads Bomholt Stabaek Ativo 97 / 121 40% 1 11.11.2027 -
Emiliano Zambrano Gimnasia y Esgrima Ativo 91 / 93 40% 1 10.11.2027 -
Nicolás Azambuja Cádiz Ativo 122 / 127 40% 1 10.11.2027 -
Bryan Caicedo Leones Ativo 100 / 105 40% 3 09.11.2027 -
Franco Minerva Platense Ativo 108 / 122 40% 3 03.11.2027 -
Lucas Camejo River Plate Ativo 79 / 96 40% 1 01.11.2027 -
Alex Amaefula Kun Khalifat Ativo 96 / 94 40% 1 25.10.2027 -
Joel Medina Independiente Ativo 110 / 129 40% 1 24.10.2027 -
Mustapha Umar Kano Pillars Ativo 89 / 82 40% 1 20.10.2027 -
Diogo Guzmán Montevideo City Torque Ativo 105 / 111 40% 1 16.10.2027 -
Oscar Otero Atletico Venezuela Ativo 96 / 104 40% 1 13.10.2027 -
Esteban de Lima Tacuarembo Ativo 103 / 109 40% 2 10.10.2027 -
Mateo Silvetti Los Angeles Football Club Ativo 117 / 116 40% 1 08.10.2027 -
Joaquín Muñoz O'Higgins Ativo 80 / 97 40% 1 06.10.2027 -
Christ Inao Oulaï Fiorentina Ativo 125 / 137 40% 2 01.06.2027 -
Pietro Reggiori Pro Patria Ativo 95 / 104 40% 2 31.05.2027 -
Derensili Sanches Fernandes Huddersfield Town Ativo 129 / 135 40% 2 30.05.2027 -
Ronald Swansea City Ativo 124 / 111 40% 3 30.05.2027 Observar
Cesare Galeotti Trapani Ativo 113 / 108 40% 1 30.05.2027 -
Daniel Kyerewaa Reading Ativo 114 / 96 40% 2 29.05.2027 -
Facundo Vila Estudiantes Ativo 98 / 111 40% 1 28.05.2027 -
Andrea Sergio Mazza Giana Erminio Ativo 110 / 109 40% 1 28.05.2027 -
David Turnbull Cardiff City Ativo 137 / 130 40% 1 28.05.2027 -
Richard Koné Queens Park Rangers Ativo 126 / 140 40% 2 27.05.2027 -
Scott Twine Bristol City Ativo 130 / 112 40% 2 27.05.2027 -
Jan Bürger Gillingham Ativo 119 / 111 40% 2 26.05.2027 -
Matías Gómez Granada Ativo 107 / 120 40% 3 26.05.2027 -
Tiago Freitas Benfica Ativo 107 / 116 40% 2 24.05.2027 -
Tyreece Campbell Charlton Athletic Ativo 126 / 107 40% 1 24.05.2027 -
Isaiah Jones Luton Town Ativo 136 / 124 40% 1 24.05.2027 -
Joel McGregor Swindon Town Ativo 106 / 116 40% 1 24.05.2027 -
Stanley Mills Oxford United Ativo 125 / 105 40% 2 22.05.2027 -
Valerio Boffelli Cavese Ativo 88 / 95 40% 1 20.05.2027 -
William Rovida Pro Patria Ativo 100 / 124 40% 1 20.05.2027 -
Elia Boseggia Novara Ativo 114 / 111 40% 1 19.05.2027 -
Ilias Akhomach Villarreal Ativo 138 / 160 40% 1 19.05.2027 -
Cian Ashford Cardiff City Ativo 128 / 103 40% 3 17.05.2027 -
Malik Mothersille Stockport County Ativo 128 / 129 40% 1 17.05.2027 -
Kazunari Kita Real Sociedad Ativo 105 / 114 40% 1 17.05.2027 -
Juan Diego Perdomo Depor Ativo 95 / 95 40% 1 17.05.2027 -
Zane Albarus Cambridge United Ativo 94 / 110 40% 2 15.05.2027 -
Gregory Sekyere Aduana Stars Ativo 81 / 84 40% 1 15.05.2027 -
Lautaro Daus Defensores Ativo 102 / 108 40% 1 12.05.2027 -
Kasey McAteer Ipswich Town Ativo 117 / 133 40% 1 11.05.2027 -
Phoenix Patterson Stevenage Ativo 124 / 98 40% 1 11.05.2027 -
Dylan Lawlor Cardiff City Ativo 126 / 107 40% 2 10.05.2027 -
Adam Hrdina Zbrojovka Brno Ativo 98 / 121 40% 1 10.05.2027 -
Sergio Barlocco Trento Ativo 99 / 109 40% 1 10.05.2027 -
Andrea Bertoncini Carpi Ativo 78 / 77 40% 1 10.05.2027 -
Jack McGlynn Stoke City Ativo 120 / 132 40% 1 08.05.2027 -
Josh Tymon Swansea City Ativo 140 / 122 40% 1 07.05.2027 -
Martim Cunha Porto Ativo 109 / 119 40% 1 05.05.2027 -
André Vidigal Asante Kotoko Ativo 104 / 101 40% 1 30.04.2027 -
Marcus Browne AFC Wimbledon Ativo 105 / 111 40% 2 26.04.2027 -
Harrison Owusu WAFA Ativo 68 / 87 40% 1 26.04.2027 -
Christian Saydee Wigan Athletic Ativo 119 / 129 40% 1 26.04.2027 -
Stephen Humphrys Bradford City Ativo 96 / 109 40% 1 25.04.2027 -
Adam Bakoune Ospitaletto Ativo 95 / 98 40% 1 24.04.2027 -
Tyler Goodrham Oxford United Ativo 127 / 127 40% 1 23.04.2027 -
Jack Diamond Stockport County Ativo 104 / 112 40% 1 23.04.2027 -
Eduardo Felicíssimo Sporting CP Ativo 121 / 124 40% 1 21.04.2027 -
Zaïd BafdilI Sporting CP Ativo 96 / 93 40% 2 20.04.2027 -
Job Ochieng Real Sociedad Ativo 122 / 115 40% 2 19.04.2027 -
Sam Mather Bromley Ativo 109 / 109 40% 1 19.04.2027 -
Armando Dobra Chesterfield Ativo 123 / 107 40% 2 18.04.2027 -
Anton Zhylkin Karpaty Ativo 97 / 103 40% 1 18.04.2027 -
Ilja Tuseev Chelyabinsk Ativo 108 / 100 40% 1 18.04.2027 -
Kwame Poku Queens Park Rangers Ativo 127 / 141 40% 1 18.04.2027 -
Alex Robertson Cardiff City Ativo 137 / 113 40% 1 14.04.2027 -
Nathan Moriah-Welsh Mansfield Town Ativo 112 / 105 40% 1 14.04.2027 -
Joseph Hungbo Wigan Athletic Ativo 109 / 116 40% 1 11.04.2027 -
Lucas Agazzi Defensor Sporting Ativo 130 / 123 40% 1 05.04.2027 -
Jon Eceizabarrena Real Sociedad Ativo 113 / 87 40% 1 03.04.2027 -
Chem Campbell Stevenage Ativo 111 / 120 40% 1 31.03.2027 -
Ollie Tanner Cardiff City Ativo 114 / 119 40% 1 27.03.2027 -
Zeidane Inoussa Swansea City Ativo 126 / 104 40% 1 26.03.2027 -
Paddy Lane Reading Ativo 121 / 105 40% 1 26.03.2027 -
Milan van Ewijk Mansfield Town Ativo 146 / 129 40% 1 25.03.2027 -
Alessio Zerbin Frosinone Ativo 131 / 133 40% 1 25.03.2027 -
Đorđe Pantelić Spartak Kostroma Ativo 123 / 106 40% 1 22.03.2027 -
Tomáš Ladra Viktoria Plzen Ativo 141 / 129 40% 1 19.03.2027 -
Hakim Sulemana Medeama Ativo 83 / 106 40% 1 19.03.2027 -
Joseph Wakaso Wa All Stars Ativo 117 / 108 40% 1 18.03.2027 -
Felix Afful Liberty Professionals Ativo 92 / 97 40% 1 01.03.2027 -
Anderson Arroyo Rubin Ativo 100 / 130 40% 1 06.02.2027 -
Hamza Choudhury Leicester City Ativo 121 / 119 40% 1 04.02.2027 -
Leif Davis Ipswich Town Ativo 122 / 140 40% 1 04.02.2027 -
Lewis Gibson Preston Ativo 107 / 129 40% 1 04.01.2027 -
Franco Díaz Temperley Ativo 114 / 122 40% 1 30.11.2026 -
Rob Atkinson Bristol City Ativo 112 / 123 40% 1 30.11.2026 -
Tomás González Piast Ativo 116 / 108 40% 1 29.11.2026 -
Habib Diarra Sunderland Ativo 155 / 156 40% 1 29.11.2026 -
Hernán de la Fuente Instituto Ativo 129 / 115 40% 1 29.11.2026 -
Robert Mizo Ashanti Gold Ativo 96 / 104 40% 1 27.11.2026 -
Luca Franco Arsenal Ativo 110 / 102 40% 1 27.11.2026 -
Wessam Abou Ali Columbus Crew Ativo 137 / 127 40% 1 24.11.2026 -
Alejo Antilef Debrecen Ativo 96 / 101 40% 1 19.11.2026 -
Gianluca Ferrari Atlético Tucumán Ativo 129 / 118 40% 1 19.11.2026 -
Yousef Salech Cardiff City Ativo 132 / 112 40% 1 19.11.2026 -
Bali Mumba Huddersfield Town Ativo 133 / 97 40% 1 17.11.2026 -
Juan Giménez Celta Ativo 127 / 123 40% 1 16.11.2026 -
Jack Currie Oxford United Ativo 110 / 137 40% 1 16.11.2026 -
Mojmír Chytil NK Maribor Ativo 127 / 146 40% 1 15.11.2026 -
Fernando Martínez Central Córdoba SdE Ativo 116 / 118 40% 1 14.11.2026 -
Facundo Ardiles Estudiantes Ativo 116 / 114 40% 1 14.11.2026 -
Kévin Denkey FC Cincinnati Ativo 137 / 125 40% 1 14.11.2026 -
Fernando Duré Estudiantes Ativo 105 / 114 40% 1 11.11.2026 -
Leandro Lozano Boca Juniors Ativo 128 / 120 40% 1 11.11.2026 -
Nicolás Cordero Aldosivi Ativo 110 / 126 40% 1 10.11.2026 -
Thiago Salischiker Rucci HNK Vukovar 1991 Ativo 82 / 97 40% 1 10.11.2026 -
Vicente Poggi Godoy Cruz Ativo 117 / 127 40% 1 08.11.2026 -
Valentín Moreno Tigre Ativo 124 / 114 40% 1 08.11.2026 -
Tomás Porra Barracas Central Ativo 111 / 129 40% 1 07.11.2026 -
Javier Martínez Almirante Brown Ativo 100 / 120 40% 1 07.11.2026 -
Rodrigo Soria Vorskla Ativo 106 / 94 40% 1 07.11.2026 -
Martín Garay Tigre Ativo 131 / 112 40% 1 05.11.2026 -
Agustín Dattola Almirante Brown Ativo 107 / 104 40% 1 05.11.2026 -
Santiago González Tigre Ativo 122 / 130 40% 1 03.11.2026 -
Germán Guiffrey Gimnasia y Esgrima Ativo 108 / 120 40% 1 03.11.2026 -
Siro Rosané Estudiantes Ativo 114 / 114 40% 1 03.11.2026 -
Stefano Moreyra Independiente Rivadavia Ativo 126 / 117 40% 1 03.11.2026 -
Iván Tapia Barracas Central Ativo 116 / 128 40% 1 31.10.2026 -
Yair Arismendi Sarmiento Ativo 125 / 119 40% 1 30.10.2026 -
Facundo Miño Deportivo Riestra Ativo 117 / 113 40% 1 30.10.2026 -
Sead Hakšabanović Malmo FF Ativo 129 / 122 40% 1 29.10.2026 -
Ignacio Rodríguez Racing Club Ativo 131 / 116 40% 1 28.10.2026 -
Franco Quinteros Estudiantes Ativo 120 / 118 40% 1 28.10.2026 -
Armindo Sieb Los Angeles Football Club Ativo 107 / 118 40% 1 22.10.2026 -
Leonardo Campana New England Revolution Ativo 125 / 114 40% 1 22.10.2026 -
Gaspar Duarte Rosario Central Ativo 111 / 120 40% 1 20.10.2026 -
Indiana Vassilev Philadelphia Union Ativo 115 / 129 40% 1 17.10.2026 -
Juan Camilo Pérez Carabobo Ativo 112 / 125 40% 1 09.09.2026 -
Agustín Reynoso Boca Juniors Ativo 67 / 80 40% 1 06.08.2026 -
Emiliano Casanova Boca Juniors Ativo 76 / 72 40% 1 06.08.2026 -
Diego Osio Deportivo La Guaira Ativo 122 / 104 40% 1 04.08.2026 -
Lautaro Quiroga Defensa y Justicia Ativo 86 / 103 40% 1 04.08.2026 -
Joel Godoy Sarmiento Ativo 116 / 119 40% 1 03.08.2026 -
Juan David Sánchez Deportivo Tachira Ativo 96 / 93 40% 1 03.08.2026 -